Time;durP1;ratioP1;P1;durP2;ratioP2;P2;SDS_P1;SDS_P2;PMS_P1;PMS_P2;Temp;Humidity;BMP_temperature;BMP_pressure;BME280_temperature;BME280_humidity;BME280_pressure;Samples;Min_cycle;Max_cycle;Signal;HPM_P1;HPM_P2
2022/05/28 00:02:08;;;;;;;14.03;4.53;;;16.70;55.20;;;;;;5068590;28;20553;-93
2022/05/28 00:04:38;;;;;;;17.67;5.27;;;16.70;54.70;;;;;;5065521;28;20324;-92
2022/05/28 00:07:06;;;;;;;25.83;7.43;;;16.70;54.90;;;;;;5067015;28;20209;-92
2022/05/28 00:09:34;;;;;;;17.57;5.47;;;16.70;55.10;;;;;;5069591;28;20213;-93
2022/05/28 00:12:01;;;;;;;20.57;6.80;;;16.70;55.30;;;;;;5070411;28;20215;-92
2022/05/28 00:14:28;;;;;;;15.73;4.37;;;16.70;55.30;;;;;;5068892;28;21319;-92
2022/05/28 00:16:56;;;;;;;18.57;6.50;;;16.60;55.50;;;;;;5067299;28;20219;-91
2022/05/28 00:19:23;;;;;;;16.03;5.40;;;16.60;55.50;;;;;;5067855;28;20212;-92
2022/05/28 00:21:52;;;;;;;23.73;7.27;;;16.60;55.70;;;;;;5068739;28;20259;-92
2022/05/28 00:24:19;;;;;;;15.87;4.77;;;16.50;55.60;;;;;;5066176;28;20696;-91
2022/05/28 00:26:46;;;;;;;18.03;6.30;;;16.50;55.80;;;;;;5069786;28;20249;-92
2022/05/28 00:29:13;;;;;;;16.67;5.30;;;16.50;55.90;;;;;;5068101;28;20240;-90
2022/05/28 00:31:43;;;;;;;18.83;6.20;;;16.50;55.90;;;;;;5070298;28;20219;-89
2022/05/28 00:34:10;;;;;;;17.50;5.60;;;16.50;56.40;;;;;;5069608;28;20336;-90
2022/05/28 00:36:40;;;;;;;17.33;5.20;;;16.40;56.20;;;;;;5064239;28;20262;-89
2022/05/28 00:39:09;;;;;;;16.57;5.83;;;16.40;56.30;;;;;;5066356;28;20224;-89
2022/05/28 00:41:36;;;;;;;14.27;5.03;;;16.40;57.10;;;;;;5066360;28;20296;-90
2022/05/28 00:44:05;;;;;;;19.07;5.60;;;16.40;56.50;;;;;;5066272;28;21205;-90
2022/05/28 00:46:33;;;;;;;12.37;4.63;;;16.30;56.50;;;;;;5067553;28;20645;-91
2022/05/28 00:49:08;;;;;;;15.63;6.07;;;16.40;56.30;;;;;;5070127;28;20214;-90
2022/05/28 00:51:43;;;;;;;12.17;4.20;;;16.30;56.30;;;;;;5071482;28;20203;-92
2022/05/28 00:54:13;;;;;;;17.73;5.80;;;16.30;56.60;;;;;;5067576;28;20210;-91
2022/05/28 00:56:41;;;;;;;18.17;6.27;;;16.30;56.50;;;;;;5069712;28;20209;-90
2022/05/28 00:59:10;;;;;;;23.77;7.53;;;16.30;56.70;;;;;;5065721;28;20699;-93
2022/05/28 01:01:41;;;;;;;20.40;6.97;;;16.20;56.80;;;;;;5066569;28;20223;-93
2022/05/28 01:04:20;;;;;;;16.00;5.37;;;16.20;56.90;;;;;;5068159;28;20211;-92
2022/05/28 01:06:56;;;;;;;13.03;5.00;;;16.10;57.30;;;;;;5067093;28;20217;-92
2022/05/28 01:09:33;;;;;;;11.97;4.73;;;16.10;57.20;;;;;;5066493;28;20413;-92
2022/05/28 01:12:11;;;;;;;10.97;5.10;;;16.10;57.20;;;;;;5066660;28;20286;-93
2022/05/28 01:14:47;;;;;;;14.90;5.07;;;16.00;57.30;;;;;;5068141;28;21114;-92
2022/05/28 01:17:18;;;;;;;20.63;6.93;;;16.00;57.60;;;;;;5066373;28;20217;-93
2022/05/28 01:19:55;;;;;;;13.90;4.43;;;16.00;57.60;;;;;;5068732;28;20260;-91
2022/05/28 01:22:33;;;;;;;13.47;4.87;;;16.00;57.80;;;;;;5068740;28;20608;-92
2022/05/28 01:25:10;;;;;;;16.30;4.27;;;15.90;57.70;;;;;;5066587;28;20210;-94
2022/05/28 01:27:43;;;;;;;13.53;4.23;;;15.90;57.60;;;;;;5069170;28;20278;-92
2022/05/28 01:30:14;;;;;;;13.77;3.73;;;15.90;58.20;;;;;;5069206;28;20341;-92
2022/05/28 01:32:44;;;;;;;15.30;4.43;;;15.90;57.40;;;;;;5066503;28;21096;-92
2022/05/28 01:35:16;;;;;;;14.13;4.03;;;15.90;57.50;;;;;;5064120;28;20559;-93
2022/05/28 01:37:46;;;;;;;11.13;3.10;;;15.90;57.80;;;;;;5065931;28;20228;-92
2022/05/28 01:40:15;;;;;;;20.90;5.20;;;15.90;57.40;;;;;;5068253;28;20215;-91
2022/05/28 01:42:49;;;;;;;14.47;4.17;;;16.00;57.40;;;;;;5064283;28;20219;-92
2022/05/28 01:45:19;;;;;;;9.23;3.10;;;15.90;57.40;;;;;;5065435;28;20217;-90
2022/05/28 01:47:47;;;;;;;14.50;4.03;;;16.00;57.30;;;;;;5064505;28;20267;-91
2022/05/28 01:50:17;;;;;;;13.57;3.73;;;16.00;57.20;;;;;;5068799;28;20207;-92
2022/05/28 01:52:47;;;;;;;10.97;3.43;;;16.00;57.40;;;;;;5067241;28;20298;-91
2022/05/28 01:55:16;;;;;;;19.70;6.07;;;16.00;57.30;;;;;;5067185;28;20674;-93
2022/05/28 01:57:46;;;;;;;10.00;3.13;;;16.00;57.20;;;;;;5063893;28;20238;-93
2022/05/28 02:00:15;;;;;;;22.60;6.73;;;16.10;57.40;;;;;;5063209;28;20291;-94
2022/05/28 02:02:42;;;;;;;16.57;4.37;;;16.10;57.30;;;;;;5063056;28;20301;-93
2022/05/28 02:05:10;;;;;;;9.57;3.10;;;16.10;56.80;;;;;;5065643;28;20308;-92
2022/05/28 02:07:37;;;;;;;10.97;2.80;;;16.10;57.00;;;;;;5064827;28;20213;-91
2022/05/28 02:10:08;;;;;;;11.50;3.63;;;16.20;57.90;;;;;;5067602;28;20316;-90
2022/05/28 02:12:44;;;;;;;15.63;4.23;;;16.20;58.00;;;;;;5068735;28;20219;-94
2022/05/28 02:15:28;;;;;;;9.93;3.20;;;16.20;57.50;;;;;;5065839;28;20225;-94
2022/05/28 02:18:06;;;;;;;10.40;3.57;;;16.20;57.50;;;;;;5063931;28;20313;-92
2022/05/28 02:20:52;;;;;;;16.77;4.67;;;16.20;57.60;;;;;;5068807;28;20230;-94
2022/05/28 02:23:25;;;;;;;9.90;3.07;;;16.20;57.80;;;;;;5068323;28;20279;-93
2022/05/28 02:26:00;;;;;;;13.90;3.23;;;16.20;57.20;;;;;;5068522;28;20207;-95
2022/05/28 02:28:31;;;;;;;10.67;3.27;;;16.20;57.50;;;;;;5063822;28;20224;-92
2022/05/28 02:31:11;;;;;;;19.80;5.77;;;16.20;57.30;;;;;;5065921;28;20212;-93
2022/05/28 02:33:38;;;;;;;14.53;4.20;;;16.20;57.50;;;;;;5066984;28;20239;-92
2022/05/28 02:36:06;;;;;;;9.80;2.97;;;16.20;57.40;;;;;;5064315;28;20321;-92
2022/05/28 02:38:33;;;;;;;9.53;2.57;;;16.20;57.30;;;;;;5062883;28;20664;-92
2022/05/28 02:41:01;;;;;;;17.53;4.87;;;16.20;57.30;;;;;;5073280;28;20952;-90
2022/05/28 02:43:29;;;;;;;5.87;2.20;;;16.20;57.30;;;;;;5072708;28;20248;-93
2022/05/28 02:45:56;;;;;;;9.20;3.13;;;16.20;57.40;;;;;;5074110;28;20218;-93
2022/05/28 02:48:25;;;;;;;20.53;5.50;;;16.20;57.50;;;;;;5059168;28;20218;-93
2022/05/28 02:50:52;;;;;;;11.17;3.00;;;16.20;57.50;;;;;;5063682;28;20241;-94
2022/05/28 02:53:19;;;;;;;10.80;3.00;;;16.20;57.40;;;;;;5073065;28;20219;-91
2022/05/28 02:55:48;;;;;;;9.47;2.80;;;16.20;57.20;;;;;;5075442;28;20239;-93
2022/05/28 02:58:15;;;;;;;14.97;4.23;;;16.10;57.40;;;;;;5073427;28;20211;-92
2022/05/28 03:00:42;;;;;;;16.07;3.90;;;16.10;57.40;;;;;;5066421;28;21561;-92
2022/05/28 03:03:09;;;;;;;13.33;3.10;;;16.10;57.60;;;;;;5070528;28;20230;-93
2022/05/28 03:05:37;;;;;;;9.07;2.87;;;16.10;57.50;;;;;;5067473;28;20265;-94
2022/05/28 03:08:05;;;;;;;9.00;2.77;;;16.10;57.70;;;;;;5071130;28;20219;-93
2022/05/28 03:10:33;;;;;;;10.07;3.07;;;16.10;57.60;;;;;;5070569;28;20218;-92
2022/05/28 03:13:00;;;;;;;15.30;4.10;;;16.00;57.50;;;;;;5065587;28;20227;-93
2022/05/28 03:15:28;;;;;;;8.50;2.63;;;16.10;57.70;;;;;;5068629;28;20236;-92
2022/05/28 03:17:59;;;;;;;15.73;4.53;;;16.00;57.60;;;;;;5069005;28;20216;-92
2022/05/28 03:20:26;;;;;;;17.30;5.10;;;16.00;57.40;;;;;;5071292;28;20215;-91
2022/05/28 03:22:56;;;;;;;9.70;2.67;;;16.00;57.40;;;;;;5058274;28;20240;-92
2022/05/28 03:25:30;;;;;;;8.03;2.93;;;16.00;57.80;;;;;;5065466;28;20613;-93
2022/05/28 03:27:57;;;;;;;9.60;2.67;;;15.90;58.00;;;;;;5070870;28;20265;-92
2022/05/28 03:30:26;;;;;;;11.30;3.13;;;15.90;57.60;;;;;;5062965;28;20235;-91
2022/05/28 03:32:53;;;;;;;9.47;2.97;;;15.90;57.80;;;;;;5063449;28;21192;-92
2022/05/28 03:35:20;;;;;;;11.77;2.97;;;15.90;57.70;;;;;;5068682;28;20210;-91
2022/05/28 03:37:47;;;;;;;10.00;3.50;;;15.80;57.90;;;;;;5069223;28;20305;-89
2022/05/28 03:40:16;;;;;;;10.87;3.27;;;15.80;58.00;;;;;;5069132;28;20326;-91
2022/05/28 03:42:44;;;;;;;20.53;6.00;;;15.80;58.20;;;;;;5063923;28;20234;-92
2022/05/28 03:45:12;;;;;;;11.37;3.23;;;15.80;58.20;;;;;;5072016;28;20215;-92
2022/05/28 03:47:39;;;;;;;13.33;3.40;;;15.80;58.20;;;;;;5071545;28;20260;-91
2022/05/28 03:50:07;;;;;;;13.43;4.27;;;15.70;58.30;;;;;;5068801;28;20219;-92
2022/05/28 03:52:35;;;;;;;13.03;3.77;;;15.70;58.10;;;;;;5072283;28;20250;-90
2022/05/28 03:55:02;;;;;;;13.00;3.43;;;15.70;58.10;;;;;;5071264;28;20242;-89
2022/05/28 03:57:32;;;;;;;11.30;3.60;;;15.70;58.30;;;;;;5071175;28;20707;-89
2022/05/28 04:00:00;;;;;;;8.40;3.00;;;15.70;58.80;;;;;;5066145;28;20243;-90
2022/05/28 04:02:30;;;;;;;22.40;5.90;;;15.70;58.80;;;;;;5060346;28;20312;-89
2022/05/28 04:04:57;;;;;;;9.67;3.10;;;15.60;58.80;;;;;;5060898;28;20726;-90
2022/05/28 04:07:27;;;;;;;9.27;2.80;;;15.60;58.70;;;;;;5055882;28;20896;-89
2022/05/28 04:09:54;;;;;;;13.87;3.77;;;15.60;59.10;;;;;;5052939;28;20672;-90
2022/05/28 04:12:21;;;;;;;10.60;2.97;;;15.60;58.70;;;;;;5068312;28;20307;-89
2022/05/28 04:14:51;;;;;;;9.23;2.87;;;15.60;58.60;;;;;;5068696;28;20326;-92
2022/05/28 04:17:21;;;;;;;10.60;3.47;;;15.60;59.00;;;;;;5071731;28;20271;-92
2022/05/28 04:19:48;;;;;;;13.90;4.40;;;15.60;59.30;;;;;;5071038;28;20273;-93
2022/05/28 04:22:15;;;;;;;19.23;5.17;;;15.60;59.40;;;;;;5057101;28;20265;-93
2022/05/28 04:24:44;;;;;;;13.60;4.60;;;15.50;59.70;;;;;;5055721;28;20647;-90
2022/05/28 04:27:11;;;;;;;14.13;4.53;;;15.60;59.70;;;;;;5058093;28;20243;-93
2022/05/28 04:29:38;;;;;;;12.23;3.33;;;15.60;59.70;;;;;;5069496;28;20666;-91
2022/05/28 04:32:07;;;;;;;9.63;3.03;;;15.50;59.60;;;;;;5069403;28;20847;-91
2022/05/28 04:34:34;;;;;;;19.57;5.50;;;15.60;60.00;;;;;;5062531;28;20246;-91
2022/05/28 04:37:01;;;;;;;8.03;2.63;;;15.60;59.90;;;;;;5063299;28;20269;-91
2022/05/28 04:39:28;;;;;;;18.17;5.13;;;15.60;59.80;;;;;;5069592;28;20309;-90
2022/05/28 04:41:56;;;;;;;7.70;2.37;;;15.60;59.90;;;;;;5072108;28;20592;-90
2022/05/28 04:44:24;;;;;;;11.03;3.37;;;15.60;60.20;;;;;;5070275;28;20213;-91
2022/05/28 04:46:52;;;;;;;15.27;4.40;;;15.70;60.40;;;;;;5063371;28;20218;-93
2022/05/28 04:49:24;;;;;;;11.53;3.30;;;15.70;60.60;;;;;;5059732;28;20223;-94
2022/05/28 04:51:51;;;;;;;15.97;3.77;;;15.70;61.00;;;;;;5057750;28;20223;-91
2022/05/28 04:54:19;;;;;;;8.47;2.77;;;15.70;60.80;;;;;;5054892;28;20220;-91
2022/05/28 04:56:46;;;;;;;16.07;4.10;;;15.80;61.20;;;;;;5060287;28;20221;-90
2022/05/28 04:59:14;;;;;;;15.80;3.73;;;15.80;61.10;;;;;;5072329;28;20212;-92
2022/05/28 05:01:41;;;;;;;18.30;5.00;;;15.90;61.20;;;;;;5056954;28;20235;-89
2022/05/28 05:04:08;;;;;;;18.07;5.27;;;15.90;61.20;;;;;;5058068;28;20306;-92
2022/05/28 05:06:40;;;;;;;8.13;1.90;;;15.90;61.10;;;;;;5069422;28;20204;-88
2022/05/28 05:09:09;;;;;;;11.47;2.90;;;16.00;61.40;;;;;;5069473;28;20207;-88
2022/05/28 05:11:36;;;;;;;9.67;2.40;;;16.00;61.20;;;;;;5070315;28;20299;-91
2022/05/28 05:14:04;;;;;;;13.47;3.80;;;16.00;61.20;;;;;;5074679;28;20207;-96
2022/05/28 05:16:32;;;;;;;10.07;3.00;;;16.10;61.20;;;;;;5057943;28;20248;-94
2022/05/28 05:18:59;;;;;;;10.40;2.77;;;16.10;61.40;;;;;;5057159;28;20250;-91
2022/05/28 05:21:26;;;;;;;10.60;3.23;;;16.20;61.50;;;;;;5058942;28;20203;-91
2022/05/28 05:23:54;;;;;;;9.37;2.60;;;16.20;61.60;;;;;;5072751;28;20220;-92
2022/05/28 05:26:22;;;;;;;19.70;5.53;;;16.30;61.70;;;;;;5067383;28;20276;-91
2022/05/28 05:28:50;;;;;;;8.07;2.53;;;16.40;61.80;;;;;;5064732;28;20213;-92
2022/05/28 05:31:21;;;;;;;13.07;3.20;;;16.40;61.80;;;;;;5063586;28;20216;-91
2022/05/28 05:33:48;;;;;;;11.43;3.50;;;16.50;62.00;;;;;;5075012;28;20251;-93
2022/05/28 05:36:15;;;;;;;12.83;3.40;;;16.50;61.90;;;;;;5057887;28;20217;-91
2022/05/28 05:38:43;;;;;;;8.87;2.73;;;16.50;61.80;;;;;;5069808;28;20264;-90
2022/05/28 05:41:11;;;;;;;11.63;3.60;;;16.60;61.80;;;;;;5066559;28;20226;-89
2022/05/28 05:43:39;;;;;;;13.93;3.00;;;16.60;61.60;;;;;;5069017;28;20770;-89
2022/05/28 05:46:08;;;;;;;9.77;3.10;;;16.70;61.70;;;;;;5066440;28;20306;-89
2022/05/28 05:48:35;;;;;;;10.90;3.00;;;16.70;61.50;;;;;;5068600;28;20220;-89
2022/05/28 05:51:06;;;;;;;12.73;3.20;;;16.80;61.50;;;;;;5067237;28;20362;-90
2022/05/28 05:53:33;;;;;;;10.50;2.97;;;16.80;61.60;;;;;;5066273;28;20208;-89
2022/05/28 05:56:04;;;;;;;7.23;2.40;;;16.90;60.90;;;;;;5068326;28;20237;-95
2022/05/28 05:58:34;;;;;;;13.00;2.70;;;16.90;61.00;;;;;;5071906;28;20461;-93
2022/05/28 06:01:01;;;;;;;19.43;5.63;;;17.00;60.50;;;;;;5066062;28;20203;-90
2022/05/28 06:03:29;;;;;;;9.17;3.10;;;17.00;60.30;;;;;;5066979;28;20220;-93
2022/05/28 06:05:58;;;;;;;15.87;4.13;;;17.10;60.40;;;;;;5065614;28;20222;-89
2022/05/28 06:08:28;;;;;;;12.10;3.17;;;17.10;60.30;;;;;;5068572;28;20272;-91
2022/05/28 06:10:55;;;;;;;17.80;4.30;;;17.10;60.10;;;;;;5064554;28;20211;-89
2022/05/28 06:13:23;;;;;;;8.60;2.83;;;17.20;59.90;;;;;;5068242;28;20583;-89
2022/05/28 06:15:51;;;;;;;11.80;3.57;;;17.20;59.80;;;;;;5055042;28;20625;-88
2022/05/28 06:18:18;;;;;;;11.97;2.93;;;17.30;59.60;;;;;;5054428;28;20214;-89
2022/05/28 06:20:45;;;;;;;7.80;2.60;;;17.30;59.50;;;;;;5069745;28;20669;-89
2022/05/28 06:23:13;;;;;;;7.83;2.47;;;17.40;59.40;;;;;;5072208;28;20261;-90
2022/05/28 06:25:40;;;;;;;10.47;3.47;;;17.40;59.50;;;;;;5071715;28;20241;-90
2022/05/28 06:28:07;;;;;;;11.93;3.70;;;17.50;59.40;;;;;;5072876;28;20297;-92
2022/05/28 06:30:34;;;;;;;8.40;2.50;;;17.60;59.10;;;;;;5066001;28;20241;-91
2022/05/28 06:33:03;;;;;;;8.77;2.60;;;17.70;59.10;;;;;;5069069;28;20308;-90
2022/05/28 06:35:31;;;;;;;7.67;1.93;;;17.70;59.10;;;;;;5071484;28;20219;-90
2022/05/28 06:37:58;;;;;;;12.40;3.30;;;17.70;59.00;;;;;;5073085;28;20214;-90
2022/05/28 06:40:25;;;;;;;16.83;4.10;;;17.80;59.10;;;;;;5055749;28;20214;-93
2022/05/28 06:42:55;;;;;;;9.00;2.20;;;17.90;58.80;;;;;;5069565;28;20326;-90
2022/05/28 06:45:23;;;;;;;10.40;3.17;;;17.90;58.30;;;;;;5067828;28;20251;-90
2022/05/28 06:47:52;;;;;;;9.10;2.43;;;18.00;58.40;;;;;;5069625;28;20705;-91
2022/05/28 06:53:09;;;;;;;9.13;2.73;;;18.10;58.30;;;;;;5052520;28;20706;-89
2022/05/28 06:55:36;;;;;;;9.07;2.50;;;18.20;57.80;;;;;;5065586;28;20321;-89
2022/05/28 06:58:03;;;;;;;10.50;2.53;;;18.20;57.20;;;;;;5056731;28;20226;-91
2022/05/28 07:00:31;;;;;;;8.73;2.33;;;18.20;57.20;;;;;;5051872;28;20265;-91
2022/05/28 07:02:58;;;;;;;9.70;2.63;;;18.20;57.30;;;;;;5067059;28;20321;-88
2022/05/28 07:05:28;;;;;;;8.90;2.20;;;18.30;57.40;;;;;;5072648;28;20301;-91
2022/05/28 07:07:55;;;;;;;9.93;2.17;;;18.30;57.60;;;;;;5056867;28;20259;-92
2022/05/28 07:10:22;;;;;;;11.20;3.07;;;18.30;57.70;;;;;;5053185;28;20654;-91
2022/05/28 07:12:49;;;;;;;12.77;3.47;;;18.30;58.00;;;;;;5063691;28;20242;-93
2022/05/28 07:15:16;;;;;;;7.60;2.57;;;18.40;57.20;;;;;;5071928;28;20207;-89
2022/05/28 07:17:43;;;;;;;7.90;2.53;;;18.40;57.30;;;;;;5071902;28;20219;-91
2022/05/28 07:20:11;;;;;;;7.60;2.70;;;18.40;57.40;;;;;;5069897;28;20225;-90
2022/05/28 07:22:40;;;;;;;8.80;2.60;;;18.40;57.40;;;;;;5071197;28;20237;-88
2022/05/28 07:25:09;;;;;;;8.73;3.00;;;18.50;57.50;;;;;;5070279;28;20257;-88
2022/05/28 07:27:36;;;;;;;7.57;2.50;;;18.50;57.70;;;;;;5069639;28;20213;-87
2022/05/28 07:30:04;;;;;;;9.50;2.67;;;18.50;57.60;;;;;;5070160;28;20242;-88
2022/05/28 07:32:31;;;;;;;9.70;2.77;;;18.50;57.40;;;;;;5070916;28;20686;-87
2022/05/28 07:34:58;;;;;;;6.07;2.27;;;18.60;57.60;;;;;;5069157;28;20221;-87
2022/05/28 07:37:25;;;;;;;7.90;2.40;;;18.60;57.60;;;;;;5062200;28;20286;-88
2022/05/28 07:39:54;;;;;;;8.07;2.17;;;18.60;57.50;;;;;;5070875;28;20289;-89
2022/05/28 07:42:21;;;;;;;8.63;2.40;;;18.70;57.50;;;;;;5070919;28;20328;-89
2022/05/28 07:44:50;;;;;;;13.03;3.60;;;18.80;57.50;;;;;;5069496;28;20210;-87
2022/05/28 07:47:18;;;;;;;6.23;2.53;;;18.80;57.30;;;;;;5073079;28;20211;-87
2022/05/28 07:49:48;;;;;;;11.83;2.73;;;18.80;57.10;;;;;;5069144;28;20215;-88
2022/05/28 07:52:17;;;;;;;8.20;2.70;;;18.90;57.20;;;;;;5072297;28;20338;-87
2022/05/28 07:54:44;;;;;;;10.57;2.77;;;18.90;57.20;;;;;;5068021;28;20330;-91
2022/05/28 07:57:13;;;;;;;12.73;4.07;;;18.90;56.90;;;;;;5069473;28;20314;-89
2022/05/28 07:59:40;;;;;;;8.23;2.83;;;18.90;56.80;;;;;;5063540;28;20554;-88
2022/05/28 08:02:07;;;;;;;9.43;2.83;;;18.90;56.90;;;;;;5069781;28;20218;-87
2022/05/28 08:04:34;;;;;;;6.70;2.23;;;19.00;56.50;;;;;;5056617;28;20246;-86
2022/05/28 08:07:05;;;;;;;16.50;4.83;;;19.00;56.40;;;;;;5057598;28;20231;-87
2022/05/28 08:09:32;;;;;;;11.43;3.57;;;19.00;56.10;;;;;;5052653;28;20235;-87
2022/05/28 08:12:00;;;;;;;7.70;2.77;;;19.00;56.00;;;;;;5053659;28;20326;-87
2022/05/28 08:14:28;;;;;;;13.97;4.23;;;19.00;56.60;;;;;;5064773;28;20312;-86
2022/05/28 08:16:55;;;;;;;9.70;2.80;;;19.00;56.00;;;;;;5070224;28;20224;-87
2022/05/28 08:19:23;;;;;;;21.30;4.97;;;19.10;56.90;;;;;;5066619;28;20330;-86
2022/05/28 08:24:34;;;;;;;12.73;4.27;;;19.10;56.10;;;;;;5066845;28;20574;-86
2022/05/28 08:27:01;;;;;;;12.30;3.67;;;19.10;56.20;;;;;;5062833;28;20210;-87
2022/05/28 08:29:31;;;;;;;7.03;2.30;;;19.10;55.80;;;;;;5057901;28;20203;-88
2022/05/28 08:31:58;;;;;;;13.37;4.30;;;19.10;55.40;;;;;;5052924;28;20290;-88
2022/05/28 08:34:25;;;;;;;8.97;3.60;;;19.10;55.40;;;;;;5053441;28;20215;-87
2022/05/28 08:36:52;;;;;;;10.03;3.33;;;19.10;55.40;;;;;;5050358;28;20219;-86
2022/05/28 08:39:19;;;;;;;6.77;2.33;;;19.20;55.80;;;;;;5055043;28;20211;-87
2022/05/28 08:41:52;;;;;;;8.27;2.80;;;19.20;55.60;;;;;;5069798;28;20721;-86
2022/05/28 08:44:23;;;;;;;7.33;2.53;;;19.30;55.90;;;;;;5069989;28;20266;-88
2022/05/28 08:46:55;;;;;;;14.23;4.40;;;19.40;56.10;;;;;;5068687;28;20294;-87
2022/05/28 08:49:26;;;;;;;7.17;2.67;;;19.50;56.00;;;;;;5069657;28;20298;-88
2022/05/28 08:51:57;;;;;;;10.87;3.50;;;19.70;55.40;;;;;;5069652;28;20214;-88
2022/05/28 08:54:28;;;;;;;5.70;1.80;;;19.90;55.50;;;;;;5066499;28;20226;-87
2022/05/28 08:56:58;;;;;;;9.67;2.90;;;20.00;55.60;;;;;;5066793;28;20738;-91
2022/05/28 08:59:32;;;;;;;8.87;2.63;;;20.30;55.60;;;;;;5066663;28;20215;-87
2022/05/28 09:02:01;;;;;;;9.93;3.23;;;20.40;55.10;;;;;;5055370;28;20294;-86
2022/05/28 09:04:32;;;;;;;8.53;3.03;;;20.60;55.30;;;;;;5057865;28;20326;-88
2022/05/28 09:07:04;;;;;;;10.10;2.97;;;20.80;54.90;;;;;;5049529;28;20215;-88
2022/05/28 09:09:37;;;;;;;7.30;2.23;;;21.00;54.70;;;;;;5049866;28;20243;-86
2022/05/28 09:12:08;;;;;;;8.77;2.83;;;21.10;53.60;;;;;;5049411;28;20222;-87
2022/05/28 09:14:37;;;;;;;9.33;2.10;;;21.30;53.70;;;;;;5065642;28;20259;-86
2022/05/28 09:17:10;;;;;;;8.57;2.63;;;21.40;52.80;;;;;;5066555;28;20203;-86
2022/05/28 09:19:41;;;;;;;6.77;2.40;;;21.50;52.50;;;;;;5068404;28;20294;-89
2022/05/28 09:22:09;;;;;;;8.47;3.10;;;21.50;52.70;;;;;;5066805;28;20207;-89
2022/05/28 09:24:37;;;;;;;7.27;2.57;;;21.50;52.30;;;;;;5066073;28;20229;-89
2022/05/28 09:27:07;;;;;;;11.30;3.90;;;21.50;52.00;;;;;;5066628;28;20597;-88
2022/05/28 09:29:58;;;;;;;9.63;3.53;;;21.50;52.40;;;;;;5065531;28;20207;-87
2022/05/28 09:32:44;;;;;;;9.27;3.50;;;21.50;52.30;;;;;;5064922;28;20207;-87
2022/05/28 09:35:21;;;;;;;9.37;3.50;;;21.50;52.10;;;;;;5068774;28;20326;-88
2022/05/28 09:37:56;;;;;;;15.60;4.47;;;21.60;52.00;;;;;;5067502;28;20599;-87
2022/05/28 09:40:35;;;;;;;8.03;2.97;;;21.60;51.40;;;;;;5063061;28;20265;-89
2022/05/28 09:43:29;;;;;;;7.33;2.63;;;21.70;50.90;;;;;;5068537;28;20229;-88
2022/05/28 09:46:07;;;;;;;12.17;3.80;;;21.70;50.90;;;;;;5059788;28;20208;-89
2022/05/28 09:48:36;;;;;;;8.87;3.40;;;21.90;51.00;;;;;;5066578;28;20271;-87
2022/05/28 09:51:03;;;;;;;5.87;2.13;;;21.90;51.20;;;;;;5067531;28;20302;-86
2022/05/28 09:56:27;;;;;;;6.87;1.93;;;22.10;51.00;;;;;;5065410;28;20248;-89
2022/05/28 09:58:54;;;;;;;5.20;2.33;;;22.20;50.90;;;;;;5066343;28;20221;-88
2022/05/28 10:01:24;;;;;;;7.47;2.60;;;22.20;51.70;;;;;;5066772;28;20205;-87
2022/05/28 10:06:53;;;;;;;8.83;2.97;;;22.40;49.90;;;;;;5066412;28;20201;-87
2022/05/28 10:09:23;;;;;;;9.63;2.73;;;22.50;50.50;;;;;;5065155;28;20687;-88
2022/05/28 10:11:54;;;;;;;7.33;2.63;;;22.60;50.60;;;;;;5066718;28;20203;-89
2022/05/28 10:14:21;;;;;;;7.00;2.27;;;22.70;50.20;;;;;;5066139;28;20329;-87
2022/05/28 10:16:49;;;;;;;6.43;2.37;;;22.70;50.20;;;;;;5067092;28;20220;-87
2022/05/28 10:19:25;;;;;;;10.77;3.30;;;22.80;50.60;;;;;;5065678;28;20297;-85
2022/05/28 10:21:58;;;;;;;6.07;2.40;;;22.90;49.40;;;;;;5067163;28;20225;-86
2022/05/28 10:24:28;;;;;;;6.77;2.50;;;22.90;49.50;;;;;;5068469;28;20602;-87
2022/05/28 10:26:57;;;;;;;9.60;2.13;;;22.90;49.70;;;;;;5055814;28;20309;-86
2022/05/28 10:29:28;;;;;;;7.93;2.50;;;22.90;49.30;;;;;;5069227;28;20215;-87
2022/05/28 10:31:57;;;;;;;6.67;2.33;;;23.00;49.70;;;;;;5061229;28;20234;-87
2022/05/28 10:34:35;;;;;;;8.43;2.67;;;23.10;49.70;;;;;;5048771;28;20215;-86
2022/05/28 10:37:14;;;;;;;7.33;2.73;;;23.10;49.20;;;;;;5056431;28;20218;-86
2022/05/28 10:39:42;;;;;;;6.40;2.53;;;23.10;48.60;;;;;;5068637;28;20217;-86
2022/05/28 10:42:11;;;;;;;6.60;2.93;;;23.10;49.20;;;;;;5069104;28;20214;-89
2022/05/28 10:44:40;;;;;;;5.47;2.10;;;23.20;49.30;;;;;;5068835;28;20323;-87
2022/05/28 10:47:25;;;;;;;5.07;2.23;;;23.20;49.30;;;;;;5060756;28;20299;-87
2022/05/28 10:50:03;;;;;;;5.23;2.20;;;23.20;48.70;;;;;;5061987;28;20294;-86
2022/05/28 10:52:39;;;;;;;8.43;2.60;;;23.20;49.40;;;;;;5066331;28;20206;-87
2022/05/28 10:55:10;;;;;;;11.70;3.27;;;23.20;48.60;;;;;;5056222;28;20225;-86
2022/05/28 10:58:16;;;;;;;5.30;2.20;;;23.10;49.00;;;;;;5058011;28;20214;-86
2022/05/28 11:00:53;;;;;;;10.83;3.67;;;23.10;47.50;;;;;;5034833;28;20219;-87
2022/05/28 11:03:51;;;;;;;10.87;3.30;;;23.00;47.40;;;;;;5071465;28;20258;-86
2022/05/28 11:07:01;;;;;;;10.60;3.40;;;22.90;47.30;;;;;;5071004;28;20253;-88
2022/05/28 11:09:43;;;;;;;8.17;2.63;;;22.90;47.90;;;;;;5056080;28;20211;-86
2022/05/28 11:12:34;;;;;;;7.43;2.50;;;22.80;47.60;;;;;;5061338;28;20254;-86
2022/05/28 11:15:30;;;;;;;7.13;2.40;;;22.80;47.50;;;;;;5054964;28;20246;-90
2022/05/28 11:18:17;;;;;;;6.00;1.90;;;22.80;46.60;;;;;;5069383;28;20279;-86
2022/05/28 11:20:52;;;;;;;7.30;2.57;;;22.70;47.40;;;;;;5058088;28;20268;-90
2022/05/28 11:23:37;;;;;;;8.97;3.10;;;22.70;48.00;;;;;;5052783;28;20321;-87
2022/05/28 11:26:17;;;;;;;8.37;2.90;;;22.80;47.80;;;;;;5062304;28;20214;-87
2022/05/28 11:29:10;;;;;;;4.17;1.87;;;22.80;47.80;;;;;;5073447;28;20210;-87
2022/05/28 11:31:44;;;;;;;9.07;3.43;;;22.80;47.10;;;;;;5053805;28;20212;-85
2022/05/28 11:34:17;;;;;;;10.30;3.53;;;22.90;47.70;;;;;;5053583;28;20583;-86
2022/05/28 11:36:49;;;;;;;16.17;5.53;;;22.90;47.50;;;;;;5053346;28;20241;-88
2022/05/28 11:39:23;;;;;;;10.27;3.20;;;22.90;47.50;;;;;;5071581;28;20643;-89
2022/05/28 11:41:57;;;;;;;6.90;2.30;;;22.90;47.10;;;;;;5074157;28;20780;-87
2022/05/28 11:44:30;;;;;;;8.90;3.10;;;22.90;47.00;;;;;;5061918;28;20238;-87
2022/05/28 11:47:04;;;;;;;11.80;4.20;;;22.90;46.60;;;;;;5058339;28;20209;-87
2022/05/28 11:52:35;;;;;;;7.33;2.80;;;22.90;46.60;;;;;;5066986;28;20215;-85
2022/05/28 11:55:09;;;;;;;8.90;3.13;;;22.90;47.00;;;;;;5058095;28;20227;-87
2022/05/28 11:57:43;;;;;;;8.97;2.67;;;22.90;47.40;;;;;;5065188;28;20632;-86
2022/05/28 12:00:14;;;;;;;5.67;1.67;;;23.00;47.20;;;;;;5071909;28;20221;-87
2022/05/28 12:02:45;;;;;;;5.40;2.17;;;23.00;46.80;;;;;;5069563;28;20242;-85
2022/05/28 12:05:18;;;;;;;6.77;2.57;;;23.10;47.10;;;;;;5071038;28;20250;-87
2022/05/28 12:07:52;;;;;;;7.80;2.97;;;23.20;46.80;;;;;;5069177;28;20579;-86
2022/05/28 12:10:38;;;;;;;7.73;2.87;;;23.20;46.50;;;;;;5070778;28;20268;-90
2022/05/28 12:13:10;;;;;;;9.23;3.23;;;23.30;45.90;;;;;;5066677;28;20215;-91
2022/05/28 12:15:39;;;;;;;6.30;2.30;;;23.40;45.60;;;;;;5070696;28;20261;-87
2022/05/28 12:18:21;;;;;;;9.23;2.70;;;23.40;45.80;;;;;;5070366;28;20222;-90
2022/05/28 12:20:53;;;;;;;7.47;2.70;;;23.40;45.50;;;;;;5071881;28;20214;-89
2022/05/28 12:23:31;;;;;;;7.30;2.80;;;23.50;45.80;;;;;;5064501;28;20229;-86
2022/05/28 12:26:00;;;;;;;7.27;2.77;;;23.50;45.00;;;;;;5064997;28;20285;-87
2022/05/28 12:28:32;;;;;;;7.23;2.80;;;23.60;46.20;;;;;;5057143;28;20214;-88
2022/05/28 12:31:07;;;;;;;5.60;2.30;;;23.60;45.40;;;;;;5052546;28;20212;-87
2022/05/28 12:33:48;;;;;;;9.17;3.37;;;23.70;45.00;;;;;;5067026;28;20218;-88
2022/05/28 12:36:23;;;;;;;7.00;2.70;;;23.80;45.50;;;;;;5071703;28;20260;-87
2022/05/28 12:38:57;;;;;;;8.07;3.20;;;23.80;45.00;;;;;;5069656;28;20237;-87
2022/05/28 12:41:28;;;;;;;12.27;3.27;;;23.80;44.70;;;;;;5070778;28;20315;-87
2022/05/28 12:44:04;;;;;;;7.80;2.47;;;23.80;44.40;;;;;;5070618;28;20381;-88
2022/05/28 12:46:43;;;;;;;9.47;3.40;;;23.80;44.60;;;;;;5072007;28;20940;-89
2022/05/28 12:49:13;;;;;;;10.10;3.30;;;23.90;44.80;;;;;;5071386;28;20679;-87
2022/05/28 12:52:23;;;;;;;15.10;5.57;;;23.90;45.20;;;;;;5069289;28;20226;-87
2022/05/28 12:55:02;;;;;;;10.10;3.57;;;23.90;44.90;;;;;;5061963;28;20222;-88
2022/05/28 12:57:31;;;;;;;9.10;3.03;;;24.00;44.60;;;;;;5064091;28;20280;-87
2022/05/28 13:00:12;;;;;;;10.97;3.67;;;24.10;45.00;;;;;;5069969;28;20215;-88
2022/05/28 13:02:43;;;;;;;9.00;3.17;;;24.20;44.20;;;;;;5065297;28;20215;-88
2022/05/28 13:05:13;;;;;;;8.73;3.60;;;24.10;45.00;;;;;;5052906;28;20228;-89
2022/05/28 13:07:48;;;;;;;8.93;3.07;;;24.10;44.60;;;;;;5050447;28;20231;-86
2022/05/28 13:10:18;;;;;;;10.47;3.97;;;24.10;44.00;;;;;;5068992;28;20306;-88
2022/05/28 13:12:57;;;;;;;9.63;3.50;;;24.10;44.00;;;;;;5064525;28;20208;-88
2022/05/28 13:15:56;;;;;;;8.43;3.10;;;24.00;43.20;;;;;;5062430;28;20619;-89